Time;durP1;ratioP1;P1;durP2;ratioP2;P2;SDS_P1;SDS_P2;PMS_P1;PMS_P2;Temp;Humidity;BMP_temperature;BMP_pressure;BME280_temperature;BME280_humidity;BME280_pressure;Samples;Min_cycle;Max_cycle;Signal;HPM_P1;HPM_P2
2022/03/06 00:00:10;;;;;;;78.57;36.58;;;2.90;99.90;;;;;;5075024;28;20037;-53
2022/03/06 00:02:39;;;;;;;70.88;36.28;;;2.90;99.90;;;;;;5074959;28;20478;-53
2022/03/06 00:05:06;;;;;;;68.82;35.10;;;3.00;99.90;;;;;;5074976;28;20477;-53
2022/03/06 00:07:32;;;;;;;65.75;35.03;;;3.10;99.90;;;;;;5074865;28;20031;-53
2022/03/06 00:09:58;;;;;;;68.50;35.80;;;3.10;99.90;;;;;;5074774;28;20080;-53
2022/03/06 00:12:24;;;;;;;66.30;35.10;;;3.10;99.90;;;;;;5074659;28;20031;-53
2022/03/06 00:14:50;;;;;;;66.70;35.25;;;3.10;99.90;;;;;;5074867;28;20067;-53
2022/03/06 00:17:16;;;;;;;65.35;34.85;;;3.10;99.90;;;;;;5074761;28;20056;-53
2022/03/06 00:19:42;;;;;;;68.45;35.42;;;3.10;99.90;;;;;;5074645;28;20596;-53
2022/03/06 00:22:08;;;;;;;60.55;34.08;;;3.10;99.90;;;;;;5074637;28;20474;-53
2022/03/06 00:24:34;;;;;;;63.83;33.95;;;3.10;99.90;;;;;;5074501;28;20117;-53
2022/03/06 00:27:01;;;;;;;57.38;32.03;;;3.00;99.90;;;;;;5074518;28;20029;-53
2022/03/06 00:29:27;;;;;;;66.18;32.53;;;3.10;99.90;;;;;;5056591;28;20033;-53
2022/03/06 00:31:53;;;;;;;64.15;31.88;;;3.10;99.90;;;;;;5074438;28;20024;-53
2022/03/06 00:34:19;;;;;;;60.20;32.08;;;3.20;99.90;;;;;;5074444;28;20028;-53
2022/03/06 00:36:45;;;;;;;55.35;29.60;;;3.10;99.90;;;;;;5074675;28;20033;-53
2022/03/06 00:39:11;;;;;;;64.18;31.23;;;3.10;99.90;;;;;;5074761;28;20046;-53
2022/03/06 00:41:37;;;;;;;58.08;29.95;;;3.10;99.90;;;;;;5074340;28;20032;-53
2022/03/06 00:44:03;;;;;;;57.95;30.10;;;3.10;99.90;;;;;;5074255;28;20039;-53
2022/03/06 00:46:29;;;;;;;59.67;31.65;;;3.10;99.90;;;;;;5074385;28;20104;-53
2022/03/06 00:48:55;;;;;;;56.92;29.80;;;3.10;99.90;;;;;;5074195;28;20078;-53
2022/03/06 00:51:21;;;;;;;61.22;31.90;;;3.10;99.90;;;;;;5074186;28;20028;-53
2022/03/06 00:53:47;;;;;;;64.93;33.38;;;3.10;99.90;;;;;;5074232;28;20082;-53
2022/03/06 00:56:14;;;;;;;59.50;31.02;;;3.00;99.90;;;;;;5074299;28;20028;-53
2022/03/06 00:58:39;;;;;;;62.92;32.45;;;3.00;99.90;;;;;;5074247;28;20030;-53
2022/03/06 01:01:06;;;;;;;60.10;30.67;;;3.00;99.90;;;;;;5074170;28;20060;-53
2022/03/06 01:03:32;;;;;;;57.30;30.48;;;3.00;99.90;;;;;;5071028;28;20024;-53
2022/03/06 01:05:58;;;;;;;62.00;32.03;;;2.90;99.90;;;;;;5074127;28;20371;-53
2022/03/06 01:08:25;;;;;;;64.68;31.88;;;2.90;99.90;;;;;;5074155;28;20092;-53
2022/03/06 01:10:51;;;;;;;62.55;30.70;;;2.90;99.90;;;;;;5073999;28;20020;-53
2022/03/06 01:13:19;;;;;;;61.10;31.55;;;2.90;99.90;;;;;;5034132;28;20025;-53
2022/03/06 01:15:45;;;;;;;64.25;30.77;;;2.90;99.90;;;;;;5016623;28;20379;-53
2022/03/06 01:18:12;;;;;;;56.03;29.63;;;2.80;99.90;;;;;;5033961;28;20115;-53
2022/03/06 01:20:39;;;;;;;54.67;29.50;;;2.80;99.90;;;;;;5034121;28;20107;-53
2022/03/06 01:23:06;;;;;;;55.83;27.85;;;2.70;99.90;;;;;;5033850;28;20029;-53
2022/03/06 01:25:33;;;;;;;53.08;27.52;;;2.70;99.90;;;;;;5044723;28;20124;-53
2022/03/06 01:28:00;;;;;;;104.70;43.55;;;2.60;99.90;;;;;;5054441;28;20032;-53
2022/03/06 01:30:26;;;;;;;62.28;31.13;;;2.60;99.90;;;;;;5053874;28;20021;-53
2022/03/06 01:32:52;;;;;;;114.82;44.47;;;2.60;99.90;;;;;;5053767;28;20490;-53
2022/03/06 01:35:19;;;;;;;118.10;44.72;;;2.50;99.90;;;;;;5053912;28;20021;-53
2022/03/06 01:37:46;;;;;;;148.82;51.30;;;2.50;99.90;;;;;;5054124;28;20100;-53
2022/03/06 01:40:14;;;;;;;212.10;70.00;;;2.40;99.90;;;;;;5053906;28;20104;-53
2022/03/06 01:42:42;;;;;;;221.93;68.35;;;2.40;99.90;;;;;;5053749;28;20056;-53
2022/03/06 01:45:09;;;;;;;146.43;48.50;;;2.40;99.90;;;;;;5053875;28;20040;-53
2022/03/06 01:47:42;;;;;;;95.80;37.30;;;2.40;99.90;;;;;;5053707;28;20503;-53
2022/03/06 01:50:17;;;;;;;98.70;38.30;;;2.30;99.90;;;;;;5053679;28;20490;-53
2022/03/06 01:52:44;;;;;;;88.38;34.97;;;2.30;99.90;;;;;;5053846;28;20103;-53
2022/03/06 01:55:11;;;;;;;197.80;59.38;;;2.30;99.90;;;;;;5053730;28;20482;-53
2022/03/06 01:57:41;;;;;;;116.07;41.20;;;2.20;99.90;;;;;;5053691;28;20029;-53
2022/03/06 02:00:12;;;;;;;63.60;29.87;;;2.30;99.90;;;;;;5053422;28;20033;-53
2022/03/06 02:02:40;;;;;;;63.97;27.80;;;2.30;99.90;;;;;;5053593;28;20254;-53
2022/03/06 02:05:07;;;;;;;51.17;25.45;;;2.30;99.90;;;;;;5057023;28;20025;-53
2022/03/06 02:07:32;;;;;;;48.00;25.27;;;2.20;99.90;;;;;;5057349;28;20029;-53
2022/03/06 02:09:59;;;;;;;48.75;23.98;;;2.10;99.90;;;;;;5057252;28;20039;-53
2022/03/06 02:12:26;;;;;;;46.13;24.63;;;2.20;99.90;;;;;;5069950;28;20466;-53
2022/03/06 02:14:54;;;;;;;42.00;23.20;;;2.20;99.90;;;;;;5077093;28;20036;-53
2022/03/06 02:17:21;;;;;;;45.15;23.30;;;2.10;99.90;;;;;;5077031;28;20037;-53
2022/03/06 02:19:58;;;;;;;44.25;23.23;;;2.10;99.90;;;;;;5077051;28;20390;-53
2022/03/06 02:22:27;;;;;;;40.67;21.40;;;2.10;99.90;;;;;;5076721;28;20390;-53
2022/03/06 02:24:54;;;;;;;47.33;23.88;;;2.10;99.90;;;;;;5076566;28;20139;-53
2022/03/06 02:27:21;;;;;;;47.00;22.88;;;2.10;99.90;;;;;;5076947;28;20438;-53
2022/03/06 02:29:47;;;;;;;43.15;22.40;;;2.00;99.90;;;;;;5076441;28;20042;-53
2022/03/06 02:32:17;;;;;;;44.33;23.40;;;1.90;99.90;;;;;;5076709;28;20028;-53
2022/03/06 02:34:45;;;;;;;44.45;22.48;;;1.90;99.90;;;;;;5076927;28;20032;-53
2022/03/06 02:37:12;;;;;;;44.88;23.33;;;1.90;99.90;;;;;;5076711;28;20028;-53
2022/03/06 02:39:38;;;;;;;44.97;23.33;;;1.80;99.90;;;;;;5076751;28;20040;-53
2022/03/06 02:42:05;;;;;;;50.83;22.98;;;1.80;99.90;;;;;;5076456;28;20382;-53
2022/03/06 02:44:31;;;;;;;46.30;24.15;;;1.70;99.90;;;;;;5076543;28;20386;-53
2022/03/06 02:46:57;;;;;;;48.40;24.45;;;1.60;99.90;;;;;;5076474;28;20031;-53
2022/03/06 02:49:23;;;;;;;46.03;24.45;;;1.50;99.90;;;;;;5076381;28;20825;-53
2022/03/06 02:51:50;;;;;;;47.35;23.98;;;1.50;99.90;;;;;;5076538;28;20352;-53
2022/03/06 02:54:23;;;;;;;45.17;24.13;;;1.60;99.90;;;;;;5076391;28;20098;-53
2022/03/06 02:56:48;;;;;;;46.28;24.50;;;1.60;99.90;;;;;;5076223;28;20098;-53
2022/03/06 02:59:15;;;;;;;48.83;25.63;;;1.50;99.90;;;;;;5076292;28;20036;-53
2022/03/06 03:01:41;;;;;;;46.88;24.10;;;1.50;99.90;;;;;;5076277;28;20037;-53
2022/03/06 03:04:08;;;;;;;45.55;24.40;;;1.50;99.90;;;;;;5076022;28;20470;-53
2022/03/06 03:06:35;;;;;;;49.88;24.42;;;1.50;99.90;;;;;;5075854;28;20025;-53
2022/03/06 03:09:04;;;;;;;42.17;22.52;;;1.40;99.90;;;;;;5076240;28;20036;-53
2022/03/06 03:11:31;;;;;;;47.97;24.60;;;1.30;99.90;;;;;;5075762;28;20020;-53
2022/03/06 03:13:58;;;;;;;45.53;23.70;;;1.00;99.90;;;;;;5075784;28;20108;-53
2022/03/06 03:16:24;;;;;;;45.28;23.85;;;1.10;99.90;;;;;;5075954;28;20032;-53
2022/03/06 03:18:50;;;;;;;45.05;23.23;;;1.20;99.90;;;;;;5075821;28;20032;-53
2022/03/06 03:21:16;;;;;;;45.53;23.60;;;1.20;99.90;;;;;;5075962;28;20029;-53
2022/03/06 03:23:42;;;;;;;53.50;25.58;;;1.20;99.90;;;;;;5075732;28;20036;-53
2022/03/06 03:26:08;;;;;;;53.40;25.90;;;1.20;99.90;;;;;;5059635;28;20069;-53
2022/03/06 03:28:34;;;;;;;45.88;23.98;;;1.20;99.90;;;;;;5055924;28;20040;-53
2022/03/06 03:31:00;;;;;;;46.78;24.00;;;1.20;99.90;;;;;;5055776;28;20055;-53
2022/03/06 03:33:26;;;;;;;48.53;24.65;;;1.10;99.90;;;;;;5055430;28;20463;-53
2022/03/06 03:35:52;;;;;;;45.95;25.25;;;1.00;99.90;;;;;;5055593;28;20139;-53
2022/03/06 03:38:18;;;;;;;47.40;24.48;;;1.00;99.90;;;;;;5055957;28;20064;-53
2022/03/06 03:40:44;;;;;;;50.70;25.65;;;1.00;99.90;;;;;;5055413;28;20041;-53
2022/03/06 03:43:10;;;;;;;45.60;23.23;;;1.10;99.90;;;;;;5055353;28;20056;-53
2022/03/06 03:45:37;;;;;;;48.80;25.00;;;1.10;99.90;;;;;;5055385;28;20079;-53
2022/03/06 03:48:03;;;;;;;52.03;25.02;;;1.00;99.90;;;;;;5055260;28;20021;-53
2022/03/06 03:50:29;;;;;;;51.30;25.45;;;1.00;99.90;;;;;;5055420;28;20029;-53
2022/03/06 03:52:55;;;;;;;50.55;23.92;;;1.00;99.90;;;;;;5055303;28;20025;-53
2022/03/06 03:55:21;;;;;;;47.47;23.83;;;1.00;99.90;;;;;;5055066;28;20039;-53
2022/03/06 03:57:47;;;;;;;41.53;20.48;;;1.00;99.90;;;;;;5055294;28;20033;-53
2022/03/06 04:00:13;;;;;;;42.88;20.85;;;0.90;99.90;;;;;;5055002;28;20025;-53
2022/03/06 04:02:39;;;;;;;38.95;20.45;;;0.80;99.90;;;;;;5054997;28;20036;-53
2022/03/06 04:05:06;;;;;;;41.13;20.52;;;0.90;99.90;;;;;;5054989;28;20037;-53
2022/03/06 04:07:32;;;;;;;36.40;20.00;;;0.80;99.90;;;;;;5054860;28;20025;-53
2022/03/06 04:09:58;;;;;;;37.05;19.70;;;0.80;99.90;;;;;;5054867;28;20092;-53
2022/03/06 04:12:24;;;;;;;36.78;19.70;;;0.80;99.90;;;;;;5054720;28;20029;-53
2022/03/06 04:14:49;;;;;;;34.70;18.95;;;0.80;99.90;;;;;;5054887;28;20083;-53
2022/03/06 04:17:15;;;;;;;45.20;22.48;;;0.70;99.90;;;;;;5054897;28;20033;-53
2022/03/06 04:19:41;;;;;;;39.72;18.95;;;0.70;99.90;;;;;;5054970;28;20079;-53
2022/03/06 04:22:07;;;;;;;41.80;20.13;;;0.60;99.90;;;;;;5054894;28;20095;-53
2022/03/06 04:24:33;;;;;;;35.42;19.58;;;0.60;99.90;;;;;;5057094;28;20466;-53
2022/03/06 04:26:59;;;;;;;37.67;20.17;;;0.60;99.90;;;;;;5074325;28;20020;-53
2022/03/06 04:29:26;;;;;;;42.38;22.02;;;0.50;99.90;;;;;;5074606;28;20099;-53
2022/03/06 04:31:52;;;;;;;40.20;20.67;;;0.50;99.90;;;;;;5074665;28;20044;-53
2022/03/06 04:34:18;;;;;;;43.60;22.75;;;0.50;99.90;;;;;;5074656;28;20112;-53
2022/03/06 04:36:44;;;;;;;41.75;20.65;;;0.50;99.90;;;;;;5074460;28;20056;-53
2022/03/06 04:39:10;;;;;;;41.13;21.23;;;0.50;99.90;;;;;;5074613;28;20032;-53
2022/03/06 04:41:36;;;;;;;42.45;23.65;;;0.50;99.90;;;;;;5074467;28;20024;-53
2022/03/06 04:44:02;;;;;;;47.85;23.23;;;0.50;99.90;;;;;;5074480;28;20444;-53
2022/03/06 04:46:28;;;;;;;42.88;22.70;;;0.50;99.90;;;;;;5074369;28;20024;-53
2022/03/06 04:48:54;;;;;;;43.83;22.50;;;0.50;99.90;;;;;;5074423;28;20090;-53
2022/03/06 04:51:20;;;;;;;45.15;23.20;;;0.50;99.90;;;;;;5074351;28;20127;-53
2022/03/06 04:53:46;;;;;;;46.80;25.08;;;0.50;99.90;;;;;;5074298;28;20115;-53
2022/03/06 04:56:12;;;;;;;52.95;26.10;;;0.40;99.90;;;;;;5074473;28;20110;-53
2022/03/06 04:58:38;;;;;;;52.17;26.50;;;0.40;99.90;;;;;;5074249;28;20044;-53
2022/03/06 05:01:05;;;;;;;57.35;27.33;;;0.40;99.90;;;;;;5074237;28;20060;-53
2022/03/06 05:03:31;;;;;;;51.17;26.00;;;0.30;99.90;;;;;;5074257;28;20044;-53
2022/03/06 05:05:56;;;;;;;49.50;25.40;;;0.40;99.90;;;;;;5073938;28;20036;-53
2022/03/06 05:08:26;;;;;;;50.67;24.63;;;0.50;99.90;;;;;;5074344;28;20044;-53
2022/03/06 05:10:52;;;;;;;47.97;24.30;;;0.40;99.90;;;;;;5074487;28;20033;-53
2022/03/06 05:13:18;;;;;;;47.72;23.92;;;0.40;99.90;;;;;;5074273;28;20048;-53
2022/03/06 05:15:44;;;;;;;50.83;24.70;;;0.40;99.90;;;;;;5074140;28;20063;-53
2022/03/06 05:18:11;;;;;;;54.15;25.83;;;0.40;99.90;;;;;;5074254;28;20497;-53
2022/03/06 05:20:38;;;;;;;57.08;24.67;;;0.40;99.90;;;;;;5073997;28;20043;-53
2022/03/06 05:23:04;;;;;;;47.38;26.30;;;0.40;99.90;;;;;;5074007;28;20039;-53
2022/03/06 05:25:30;;;;;;;53.63;27.45;;;0.50;99.90;;;;;;5063400;28;20033;-53
2022/03/06 05:27:56;;;;;;;52.25;28.20;;;0.50;99.90;;;;;;5054087;28;20044;-53
2022/03/06 05:30:22;;;;;;;53.17;28.02;;;0.50;99.90;;;;;;5053805;28;20021;-53
2022/03/06 05:32:49;;;;;;;58.80;28.58;;;0.50;99.90;;;;;;5053850;28;20025;-53
2022/03/06 05:35:15;;;;;;;61.83;29.23;;;0.50;99.90;;;;;;5053867;28;20037;-53
2022/03/06 05:37:41;;;;;;;60.17;28.80;;;0.40;99.90;;;;;;5053847;28;20032;-53
2022/03/06 05:40:09;;;;;;;56.80;28.33;;;0.40;99.90;;;;;;5057201;28;20479;-53
2022/03/06 05:42:35;;;;;;;57.95;28.77;;;0.40;99.90;;;;;;5057531;28;20033;-53
2022/03/06 05:45:01;;;;;;;66.57;31.95;;;0.50;99.90;;;;;;5057669;28;20036;-53
2022/03/06 05:47:27;;;;;;;69.28;32.67;;;0.50;99.90;;;;;;5057515;28;20021;-53
2022/03/06 05:49:53;;;;;;;67.35;31.80;;;0.50;99.90;;;;;;5057624;28;20463;-53
2022/03/06 05:52:19;;;;;;;66.28;32.30;;;0.50;99.90;;;;;;5057512;28;20075;-53
2022/03/06 05:54:45;;;;;;;78.20;36.20;;;0.60;99.90;;;;;;5057351;28;20381;-53
2022/03/06 05:57:11;;;;;;;70.47;34.25;;;0.50;99.90;;;;;;5057388;28;20032;-53
2022/03/06 05:59:37;;;;;;;83.18;39.22;;;0.60;99.90;;;;;;5057472;28;20035;-53
2022/03/06 06:02:03;;;;;;;81.75;36.72;;;0.60;99.90;;;;;;5039386;28;20086;-53
2022/03/06 06:04:29;;;;;;;76.15;37.17;;;0.60;99.90;;;;;;5057217;28;20029;-53
2022/03/06 06:06:55;;;;;;;82.45;37.88;;;0.60;99.90;;;;;;5057141;28;20116;-53
2022/03/06 06:09:21;;;;;;;76.80;38.08;;;0.60;99.90;;;;;;5057010;28;20386;-53
2022/03/06 06:11:47;;;;;;;92.13;39.85;;;0.60;99.90;;;;;;5057114;28;20044;-53
2022/03/06 06:14:13;;;;;;;93.75;40.50;;;0.70;99.90;;;;;;5057205;28;20036;-53
2022/03/06 06:16:39;;;;;;;91.10;42.95;;;0.70;99.90;;;;;;5057027;28;20083;-53
2022/03/06 06:19:06;;;;;;;101.43;43.72;;;0.70;99.90;;;;;;5056977;28;20032;-53
2022/03/06 06:21:32;;;;;;;92.50;42.33;;;0.70;99.90;;;;;;5057138;28;20033;-53
2022/03/06 06:23:58;;;;;;;94.22;44.10;;;0.70;99.90;;;;;;5056756;28;20035;-53
2022/03/06 06:26:24;;;;;;;93.28;43.55;;;0.70;99.90;;;;;;5074570;28;20102;-53
2022/03/06 06:28:55;;;;;;;94.88;44.20;;;0.70;99.90;;;;;;5076961;28;20085;-53
2022/03/06 06:31:24;;;;;;;106.78;47.20;;;0.70;99.90;;;;;;5076390;28;20032;-53
2022/03/06 06:33:50;;;;;;;109.07;49.22;;;0.70;99.90;;;;;;5076900;28;20033;-53
2022/03/06 06:36:16;;;;;;;103.55;48.10;;;0.80;99.90;;;;;;5076622;28;20386;-53
2022/03/06 06:38:43;;;;;;;101.18;47.50;;;0.80;99.90;;;;;;5076695;28;20028;-53
2022/03/06 06:41:09;;;;;;;108.07;48.00;;;0.90;99.90;;;;;;5076665;28;20099;-53
2022/03/06 06:43:35;;;;;;;108.82;47.13;;;0.90;99.90;;;;;;5076434;28;20032;-53
2022/03/06 06:46:01;;;;;;;119.53;49.30;;;0.90;99.90;;;;;;5076497;28;20024;-53
2022/03/06 06:48:27;;;;;;;117.38;52.10;;;0.90;99.90;;;;;;5058524;28;20055;-53
2022/03/06 06:50:53;;;;;;;131.68;54.97;;;0.90;99.90;;;;;;5075860;28;20025;-53
2022/03/06 06:53:19;;;;;;;121.25;52.60;;;1.00;99.90;;;;;;5076334;28;20029;-54
2022/03/06 06:55:45;;;;;;;110.00;48.85;;;1.10;99.90;;;;;;5076228;28;20024;-54
2022/03/06 06:58:11;;;;;;;114.47;54.65;;;1.10;99.90;;;;;;5076291;28;20075;-53
2022/03/06 07:00:37;;;;;;;112.43;51.40;;;1.10;99.90;;;;;;5076165;28;20063;-54
2022/03/06 07:03:03;;;;;;;117.40;52.47;;;1.20;99.90;;;;;;5076190;28;20048;-53
2022/03/06 07:05:29;;;;;;;109.78;51.95;;;1.30;99.90;;;;;;5076209;28;20470;-53
2022/03/06 07:07:55;;;;;;;37.28;21.27;;;1.30;99.90;;;;;;5076092;28;20093;-54
2022/03/06 07:10:21;;;;;;;28.17;17.17;;;1.40;99.90;;;;;;5075927;28;20103;-54
2022/03/06 07:12:51;;;;;;;25.33;17.38;;;1.50;99.90;;;;;;5075919;28;20035;-54
2022/03/06 07:15:17;;;;;;;23.52;15.02;;;1.70;99.90;;;;;;5075930;28;20078;-54
2022/03/06 07:17:43;;;;;;;18.58;14.05;;;1.90;99.90;;;;;;5075694;28;20421;-54
2022/03/06 07:20:09;;;;;;;15.70;10.73;;;2.00;99.90;;;;;;5075806;28;20039;-54
2022/03/06 07:22:36;;;;;;;16.50;11.80;;;2.20;99.90;;;;;;5076203;28;20024;-54
2022/03/06 07:25:03;;;;;;;16.20;11.27;;;2.30;99.90;;;;;;5075763;28;20102;-54
2022/03/06 07:27:29;;;;;;;13.77;9.38;;;2.30;99.90;;;;;;5075716;28;20039;-54
2022/03/06 07:29:56;;;;;;;21.05;12.40;;;2.30;99.90;;;;;;5075332;28;20046;-54
2022/03/06 07:32:23;;;;;;;22.48;11.32;;;2.40;99.90;;;;;;5075614;28;20021;-54
2022/03/06 07:34:49;;;;;;;17.92;10.63;;;2.40;99.90;;;;;;5075500;28;20028;-54
2022/03/06 07:37:15;;;;;;;21.45;11.55;;;2.50;99.90;;;;;;5075543;28;20040;-54
2022/03/06 07:39:41;;;;;;;21.15;15.07;;;2.50;99.90;;;;;;5075523;28;20367;-54
2022/03/06 07:42:07;;;;;;;19.33;10.48;;;2.60;99.90;;;;;;5075280;28;20111;-54
2022/03/06 07:44:34;;;;;;;20.77;14.50;;;2.70;99.90;;;;;;5057352;28;20086;-54
2022/03/06 07:47:00;;;;;;;19.52;12.77;;;2.70;99.90;;;;;;5075289;28;20155;-54
2022/03/06 07:49:26;;;;;;;21.52;14.18;;;2.80;99.90;;;;;;5075292;28;20493;-54
2022/03/06 07:51:52;;;;;;;16.55;12.02;;;2.80;99.90;;;;;;5075285;28;20111;-54
2022/03/06 07:54:18;;;;;;;17.25;12.50;;;2.90;99.90;;;;;;5075164;28;20103;-54
2022/03/06 07:56:45;;;;;;;28.20;18.63;;;2.90;99.90;;;;;;5075149;28;20102;-54
2022/03/06 07:59:11;;;;;;;13.85;9.65;;;3.00;99.90;;;;;;5075228;28;20028;-54
2022/03/06 08:01:37;;;;;;;15.75;11.55;;;3.00;99.90;;;;;;5074110;28;20505;-54
2022/03/06 08:04:04;;;;;;;14.00;10.10;;;3.10;99.90;;;;;;5075072;28;20036;-54
2022/03/06 08:06:30;;;;;;;16.33;11.77;;;3.20;99.90;;;;;;5074795;28;20017;-54
2022/03/06 08:08:56;;;;;;;16.70;12.02;;;3.30;99.90;;;;;;5074928;28;20025;-54
2022/03/06 08:11:22;;;;;;;15.63;12.27;;;3.40;99.90;;;;;;5074734;28;20112;-54
2022/03/06 08:13:48;;;;;;;14.65;10.38;;;3.30;99.90;;;;;;5074829;28;20064;-54
2022/03/06 08:16:13;;;;;;;14.38;9.43;;;3.40;99.90;;;;;;5074768;28;20032;-54
2022/03/06 08:18:39;;;;;;;13.63;9.30;;;3.50;99.90;;;;;;5074657;28;20036;-54
2022/03/06 08:21:05;;;;;;;75.95;27.38;;;3.50;99.90;;;;;;5074827;28;20386;-54
2022/03/06 08:23:31;;;;;;;67.15;25.88;;;3.50;99.90;;;;;;5074552;28;20054;-54
2022/03/06 08:25:57;;;;;;;47.17;21.30;;;3.50;99.90;;;;;;5074556;28;20071;-54
2022/03/06 08:28:23;;;;;;;31.08;18.67;;;3.70;99.90;;;;;;5074590;28;20052;-54
2022/03/06 08:30:49;;;;;;;15.55;10.90;;;3.70;99.90;;;;;;5074556;28;20029;-54
2022/03/06 08:33:15;;;;;;;11.00;7.97;;;3.70;99.90;;;;;;5074666;28;20494;-54
2022/03/06 08:35:41;;;;;;;11.25;8.48;;;3.70;99.90;;;;;;5074398;28;20025;-54
2022/03/06 08:38:07;;;;;;;12.30;8.30;;;3.80;99.90;;;;;;5074435;28;20029;-54
2022/03/06 08:40:33;;;;;;;13.93;8.95;;;3.90;99.90;;;;;;5074544;28;20032;-54
2022/03/06 08:42:59;;;;;;;12.18;8.27;;;3.90;99.90;;;;;;5074245;28;20031;-54
2022/03/06 08:45:25;;;;;;;10.40;7.45;;;4.00;99.90;;;;;;5074257;28;20067;-54
2022/03/06 08:47:51;;;;;;;11.93;8.20;;;4.10;99.90;;;;;;5074210;28;20046;-54
2022/03/06 08:50:17;;;;;;;12.18;8.27;;;4.20;99.90;;;;;;5074351;28;20035;-54
2022/03/06 08:52:43;;;;;;;16.85;10.82;;;4.40;99.90;;;;;;5074050;28;20391;-54
2022/03/06 08:55:09;;;;;;;10.77;7.25;;;4.50;99.90;;;;;;5074635;28;20036;-54
2022/03/06 08:57:36;;;;;;;9.07;6.30;;;4.50;99.90;;;;;;5074369;28;20038;-54
2022/03/06 09:00:04;;;;;;;8.70;6.55;;;4.50;99.90;;;;;;5074423;28;20112;-54
2022/03/06 09:02:30;;;;;;;35.72;16.73;;;4.60;99.90;;;;;;5074319;28;20040;-54
2022/03/06 09:04:56;;;;;;;13.48;8.60;;;4.70;99.90;;;;;;5073960;28;20036;-54
2022/03/06 09:07:23;;;;;;;9.18;7.25;;;4.80;99.90;;;;;;5074014;28;20033;-54
2022/03/06 09:09:49;;;;;;;11.00;7.20;;;4.90;99.90;;;;;;5074050;28;20032;-54
2022/03/06 09:12:16;;;;;;;10.13;7.07;;;5.00;99.90;;;;;;5074631;28;20077;-54
2022/03/06 09:14:42;;;;;;;20.70;12.30;;;5.10;99.90;;;;;;5078393;28;20032;-54
2022/03/06 09:17:09;;;;;;;11.82;8.82;;;5.20;99.90;;;;;;5078162;28;20166;-54
2022/03/06 09:19:35;;;;;;;10.70;7.45;;;5.40;99.90;;;;;;5078154;28;20036;-54
2022/03/06 09:22:02;;;;;;;10.43;7.35;;;5.50;99.90;;;;;;5078369;28;20039;-54
2022/03/06 09:24:27;;;;;;;9.32;7.40;;;5.70;99.90;;;;;;5077885;28;20090;-54
2022/03/06 09:26:53;;;;;;;10.40;7.85;;;5.80;99.90;;;;;;5078077;28;20033;-54
2022/03/06 09:29:19;;;;;;;8.70;6.55;;;5.90;99.90;;;;;;5077983;28;20040;-54
2022/03/06 09:31:45;;;;;;;8.80;6.85;;;5.90;99.90;;;;;;5059544;28;20028;-54
2022/03/06 09:34:11;;;;;;;10.80;7.63;;;5.90;99.90;;;;;;5078742;28;20377;-53
2022/03/06 09:36:37;;;;;;;8.32;6.85;;;5.80;99.90;;;;;;5077852;28;20106;-53
2022/03/06 09:39:05;;;;;;;9.88;7.75;;;5.70;99.90;;;;;;5077896;28;20028;-53
2022/03/06 09:41:31;;;;;;;11.18;7.93;;;5.80;99.90;;;;;;5077905;28;20025;-53
2022/03/06 09:43:57;;;;;;;11.98;8.05;;;5.70;99.90;;;;;;5077701;28;20064;-53
2022/03/06 09:46:24;;;;;;;10.00;8.48;;;5.60;99.90;;;;;;5077488;28;20390;-53
2022/03/06 09:48:51;;;;;;;10.90;8.13;;;5.60;99.90;;;;;;5078057;28;20024;-53
2022/03/06 09:51:17;;;;;;;10.73;8.60;;;5.60;99.90;;;;;;5077701;28;20100;-53
2022/03/06 09:53:43;;;;;;;10.60;8.25;;;5.60;99.90;;;;;;5077511;28;20115;-53
2022/03/06 09:56:09;;;;;;;13.00;9.00;;;5.70;99.90;;;;;;5077358;28;20115;-53
2022/03/06 09:58:35;;;;;;;13.05;10.07;;;5.50;99.90;;;;;;5077461;28;20077;-53
2022/03/06 10:01:01;;;;;;;10.45;8.10;;;5.60;99.90;;;;;;5077378;28;20021;-53
2022/03/06 10:03:32;;;;;;;12.57;8.40;;;5.50;99.90;;;;;;5077218;28;20474;-53
2022/03/06 10:06:03;;;;;;;11.25;8.30;;;5.50;99.90;;;;;;5077291;28;20029;-53
2022/03/06 10:08:29;;;;;;;11.90;9.20;;;5.60;99.90;;;;;;5077392;28;20040;-54
2022/03/06 10:10:58;;;;;;;11.45;8.20;;;5.70;99.90;;;;;;5076755;28;20029;-53
2022/03/06 10:13:32;;;;;;;14.95;9.52;;;5.80;99.90;;;;;;5057498;28;20044;-53
2022/03/06 10:16:19;;;;;;;24.20;15.52;;;5.80;99.90;;;;;;5057211;28;20047;-53
2022/03/06 10:18:48;;;;;;;12.55;8.85;;;5.80;99.90;;;;;;5057104;28;20064;-53
2022/03/06 10:21:17;;;;;;;11.98;9.50;;;6.00;99.90;;;;;;5057122;28;20032;-53
2022/03/06 10:23:45;;;;;;;22.60;12.88;;;6.00;99.90;;;;;;5056636;28;20117;-53
2022/03/06 10:26:20;;;;;;;17.77;10.80;;;6.10;99.90;;;;;;5056570;28;20052;-53
2022/03/06 10:28:48;;;;;;;16.75;10.45;;;6.00;99.90;;;;;;5057139;28;20036;-54
2022/03/06 10:31:16;;;;;;;20.27;12.43;;;5.80;99.90;;;;;;5056632;28;20057;-53
2022/03/06 10:34:07;;;;;;;22.83;12.52;;;5.70;99.90;;;;;;5056792;28;20142;-53
2022/03/06 10:36:44;;;;;;;39.13;20.08;;;5.60;99.90;;;;;;5056873;28;20025;-53
2022/03/06 10:39:13;;;;;;;27.40;14.85;;;5.50;99.90;;;;;;5056681;28;20045;-53
2022/03/06 10:41:42;;;;;;;36.05;18.52;;;5.20;99.90;;;;;;5056521;28;20024;-54
2022/03/06 10:44:11;;;;;;;69.75;29.90;;;5.20;99.90;;;;;;5056607;28;20032;-53
2022/03/06 10:46:38;;;;;;;104.88;40.45;;;5.10;99.90;;;;;;5056363;28;20104;-53
2022/03/06 10:49:15;;;;;;;124.60;48.33;;;5.00;99.90;;;;;;5056432;28;20032;-53
2022/03/06 10:51:54;;;;;;;66.43;31.98;;;4.90;99.90;;;;;;5056390;28;20516;-53
2022/03/06 10:54:20;;;;;;;34.83;19.90;;;4.80;99.90;;;;;;5056416;28;20041;-53
2022/03/06 10:56:50;;;;;;;20.95;13.50;;;4.90;99.90;;;;;;5056336;28;20111;-53
2022/03/06 10:59:24;;;;;;;17.93;14.00;;;4.80;99.90;;;;;;5056166;28;20083;-53
2022/03/06 11:01:50;;;;;;;14.90;11.63;;;4.80;99.90;;;;;;5056172;28;20581;-53
2022/03/06 11:04:21;;;;;;;11.55;8.73;;;4.90;99.90;;;;;;5056079;28;20029;-53
2022/03/06 11:06:50;;;;;;;12.48;8.68;;;4.80;99.90;;;;;;5056152;28;20051;-53
2022/03/06 11:09:17;;;;;;;11.85;9.13;;;4.70;99.90;;;;;;5056269;28;20110;-53
2022/03/06 11:11:46;;;;;;;14.63;9.93;;;4.70;99.90;;;;;;5055768;28;20048;-53
2022/03/06 11:14:13;;;;;;;12.20;9.82;;;4.70;99.90;;;;;;5056009;28;20108;-53
2022/03/06 11:16:40;;;;;;;12.70;9.27;;;4.60;99.90;;;;;;5055981;28;20040;-53
2022/03/06 11:19:08;;;;;;;12.35;9.60;;;4.50;99.90;;;;;;5055586;28;20036;-53
2022/03/06 11:21:37;;;;;;;14.57;10.10;;;4.60;99.90;;;;;;5055915;28;20107;-53
2022/03/06 11:24:15;;;;;;;11.05;8.15;;;4.50;99.90;;;;;;5055701;28;20131;-53
2022/03/06 11:26:59;;;;;;;17.17;12.30;;;4.50;99.90;;;;;;5075555;28;20075;-53
2022/03/06 11:29:27;;;;;;;11.10;8.77;;;4.50;99.90;;;;;;5075588;28;20028;-53
2022/03/06 11:31:55;;;;;;;16.88;11.30;;;4.50;99.90;;;;;;5075432;28;20024;-53
2022/03/06 11:34:34;;;;;;;12.57;9.48;;;4.70;99.90;;;;;;5075452;28;20025;-53
2022/03/06 11:37:06;;;;;;;12.02;9.73;;;4.70;99.90;;;;;;5074821;28;20037;-53
2022/03/06 11:39:32;;;;;;;11.93;9.02;;;4.80;99.90;;;;;;5075514;28;20090;-53
2022/03/06 11:42:03;;;;;;;12.63;8.30;;;4.90;99.90;;;;;;5075336;28;20040;-53
2022/03/06 11:44:35;;;;;;;11.75;9.23;;;5.00;99.90;;;;;;5075324;28;20035;-53
2022/03/06 11:47:23;;;;;;;12.02;8.70;;;5.00;99.90;;;;;;5075357;28;20083;-53
2022/03/06 11:50:01;;;;;;;12.45;9.73;;;5.00;99.90;;;;;;5075280;28;20498;-53
2022/03/06 11:52:36;;;;;;;14.18;10.63;;;5.10;99.90;;;;;;5075305;28;20033;-53
2022/03/06 11:55:29;;;;;;;12.38;9.48;;;5.00;99.90;;;;;;5074995;28;20175;-53
2022/03/06 11:57:55;;;;;;;18.10;11.95;;;5.10;99.90;;;;;;5075468;28;20028;-53
2022/03/06 12:00:30;;;;;;;14.15;10.85;;;5.10;99.90;;;;;;5075176;28;20048;-53
2022/03/06 12:02:59;;;;;;;14.52;11.05;;;5.20;99.90;;;;;;5074886;28;20496;-53
2022/03/06 12:05:46;;;;;;;14.70;10.52;;;5.20;99.90;;;;;;5074891;28;20029;-53
2022/03/06 12:08:14;;;;;;;14.55;11.43;;;5.20;99.90;;;;;;5074874;28;20036;-53
2022/03/06 12:10:41;;;;;;;17.73;11.80;;;5.20;99.90;;;;;;5074950;28;20032;-53
2022/03/06 12:13:20;;;;;;;18.05;12.52;;;5.30;99.90;;;;;;5074726;28;20419;-53
2022/03/06 12:16:04;;;;;;;20.48;13.70;;;5.40;99.90;;;;;;5074872;28;20040;-53
2022/03/06 12:18:30;;;;;;;20.48;13.05;;;5.50;99.90;;;;;;5074603;28;20029;-53
2022/03/06 12:20:57;;;;;;;16.20;11.60;;;5.40;99.90;;;;;;5074795;28;20100;-53
2022/03/06 12:23:28;;;;;;;20.95;13.77;;;5.50;99.90;;;;;;5074588;28;20043;-53
2022/03/06 12:25:58;;;;;;;25.85;16.08;;;5.40;99.90;;;;;;5074516;28;20045;-53
2022/03/06 12:28:45;;;;;;;32.05;17.48;;;5.40;99.90;;;;;;5074669;28;20107;-53
2022/03/06 12:31:34;;;;;;;25.63;15.70;;;5.20;99.90;;;;;;5074304;28;20039;-53
2022/03/06 12:34:21;;;;;;;14.98;10.52;;;5.00;99.90;;;;;;5074519;28;20036;-53
2022/03/06 12:36:53;;;;;;;16.08;10.23;;;4.90;99.90;;;;;;5074475;28;20397;-53
2022/03/06 12:39:19;;;;;;;13.13;9.32;;;4.90;99.90;;;;;;5074542;28;20474;-54